»·PEaware :: N49872 KRNM-KRNM

N49872 :: KRNM-KRNM

FLIGHT INFORMATION

Flight Status: Arrived
Operator: Privately registered:
United States
More flights under this callsign
Pilot: Jeff K. (12978)
Aircraft: CESSNA 172 SKYHAWK
(C172)
More flights by this aircraft type
Origin: KRNM Ramona
United States
Destination: KRNM Ramona
United States
More flights between these airports :: More routes between these airports
Route: +
File this flight plan on PilotEdge
Remarks:
Altitude:
(Current/Filed)
0ft
Speed:
(Current/Filed)
0kts
Departed: 15-Aug-18 04:30 PM
Arrived: 15-Aug-18 05:26 PM
Distance/Time
Traveled:
0nm/0:56
Distance/Time
To Go:
Arrived

Flight Plot

Page will automatically refresh every two minutes.


Map Options




Map Legend


Flown Route
Filed Route
Departure Airport
Arrival Airport
Navaid (VOR, NDB)
Fix

Horizontal Profiles

Position Reports

Time Latitude Longitude Heading Altitude Ground
Speed
15-Aug-18 16:28 33.039091 -116.910112 102 1391ft 5kts
15-Aug-18 16:29 33.038705 -116.907483 131 1388ft 5kts
15-Aug-18 16:30 33.038655 -116.907421 139 1388ft 0kts
15-Aug-18 16:31 33.039664 -116.917119 281 1583ft 92kts
15-Aug-18 16:32 33.056754 -116.937687 330 2884ft 98kts
15-Aug-18 16:33 33.081361 -116.953502 332 3545ft 99kts
15-Aug-18 16:34 33.108635 -116.967262 335 3611ft 107kts
15-Aug-18 16:35 33.133558 -116.985765 326 3668ft 106kts
15-Aug-18 16:36 33.157740 -116.999730 356 2889ft 93kts
15-Aug-18 16:37 33.177292 -116.995558 320 1817ft 63kts
15-Aug-18 16:38 33.170955 -117.015511 179 1937ft 84kts
15-Aug-18 16:39 33.175760 -117.002050 52 1566ft 22kts
15-Aug-18 16:40 33.188784 -116.986564 37 2801ft 83kts
15-Aug-18 16:41 33.180323 -116.996294 187 1958ft 71kts
15-Aug-18 16:42 33.176745 -117.000903 249 1562ft 38kts
15-Aug-18 16:43 33.184632 -116.992303 205 1985ft 80kts
15-Aug-18 16:44 33.173920 -116.995344 70 1600ft 92kts
15-Aug-18 16:45 33.177409 -117.000035 228 1571ft 58kts
15-Aug-18 16:46 33.179747 -116.989342 328 1912ft 85kts
15-Aug-18 16:47 33.175566 -117.002239 217 1567ft 26kts
15-Aug-18 16:48 33.186148 -116.995839 181 2061ft 74kts
15-Aug-18 16:49 33.175072 -116.997301 57 1702ft 68kts
15-Aug-18 16:50 33.176204 -117.001169 80 1561ft 0kts
15-Aug-18 16:51 33.178536 -116.997366 58 1865ft 50kts
15-Aug-18 16:52 33.180846 -116.995108 270 1940ft 60kts
15-Aug-18 16:53 33.172465 -117.004663 163 1795ft 62kts
15-Aug-18 16:54 33.178104 -116.999247 223 1619ft 59kts
15-Aug-18 16:55 33.172424 -116.998012 68 1599ft 106kts
15-Aug-18 16:56 33.175377 -117.002044 61 1564ft 8kts
15-Aug-18 16:57 33.177788 -116.996104 309 1738ft 56kts
15-Aug-18 16:58 33.179994 -116.999269 155 1760ft 63kts
15-Aug-18 16:59 33.184846 -117.000995 107 1847ft 72kts
15-Aug-18 17:00 33.176263 -117.002288 341 1568ft 0kts
15-Aug-18 17:01 33.179796 -116.991727 46 1853ft 85kts
15-Aug-18 17:02 33.178960 -117.004289 11 1621ft 79kts
15-Aug-18 17:03 33.176039 -117.002561 136 1567ft 11kts
15-Aug-18 17:04 33.178834 -116.998127 238 1703ft 64kts
15-Aug-18 17:05 33.181352 -116.997007 182 1864ft 67kts
15-Aug-18 17:07 33.355688 -117.251959 106 712ft 0kts
15-Aug-18 17:08 33.355530 -117.250325 188 712ft 4kts
15-Aug-18 17:09 33.351989 -117.251192 195 712ft 11kts
15-Aug-18 17:10 33.366967 -117.247287 21 1257ft 96kts
15-Aug-18 17:11 33.353733 -117.231838 177 1914ft 114kts
15-Aug-18 17:12 33.326636 -117.215472 138 2805ft 109kts
15-Aug-18 17:13 33.304801 -117.190640 133 3485ft 104kts
15-Aug-18 17:14 33.289885 -117.170829 128 3429ft 94kts
15-Aug-18 17:15 33.272447 -117.152473 142 3241ft 109kts
15-Aug-18 17:16 33.242980 -117.127339 146 3292ft 108kts
15-Aug-18 17:17 33.216942 -117.108209 150 3381ft 108kts
15-Aug-18 17:18 33.190110 -117.090069 139 3381ft 111kts
15-Aug-18 17:19 33.165700 -117.067671 146 3363ft 110kts
15-Aug-18 17:20 33.142280 -117.044124 132 3337ft 111kts
15-Aug-18 17:21 33.120984 -117.017889 132 3340ft 110kts
15-Aug-18 17:22 33.099756 -116.991672 133 3345ft 109kts
15-Aug-18 17:23 33.078805 -116.965285 133 3318ft 107kts
15-Aug-18 17:24 33.058331 -116.940581 134 2807ft 100kts
15-Aug-18 17:25 33.047299 -116.912419 98 2361ft 84kts
15-Aug-18 17:26 33.037781 -116.895426 205 1775ft 73kts
15-Aug-18 17:27 33.038906 -116.912382 337 1392ft 18kts

Navigation Log

Ident Type
Flight plan parsing failed, navigation log unavailable